Terminal Aerodrome Forecast
Issued by NWS

Home | Current Version | Previous Version | Text Only | Print | Product List | Glossary On
Versions: 1 2 3 4 5 6 7 8 9 10 11 12 13 14
000
FTUS46 KSEW 250520
TAFBFI
TAF
KBFI 250520Z 2506/2606 VRB03KT P6SM BKN040 OVC070
     FM251000 18006KT P6SM BKN025 OVC040
     FM252000 20008KT P6SM SCT030 BKN040=

USA.gov is the U.S. government's official web portal to all federal, state and local government web resources and services.